Time;durP1;ratioP1;P1;durP2;ratioP2;P2;SDS_P1;SDS_P2;PMS_P1;PMS_P2;Temp;Humidity;BMP_temperature;BMP_pressure;BME280_temperature;BME280_humidity;BME280_pressure;Samples;Min_cycle;Max_cycle;Signal;HPM_P1;HPM_P2
2021/09/17 00:00:29;;;;;;;;;;;;;;;;;;2112849;27;1084;-74
2021/09/17 00:01:31;;;;;;;;;;;;;;;;;;2111844;27;1207;-74
2021/09/17 00:02:41;;;;;;;;;;;;;;;;;;2114276;27;1048;-74
2021/09/17 00:03:41;;;;;;;;;;;;;;;;;;2111046;27;1041;-74
2021/09/17 00:04:42;;;;;;;;;;;;;;;;;;2113907;27;4114;-75
2021/09/17 00:05:42;;;;;;;;;;;;;;;;;;2111054;27;4464;-74
2021/09/17 00:06:43;;;;;;;;;;;;;;;;;;2108030;27;1642;-74
2021/09/17 00:07:43;;;;;;;;;;;;;;;;;;2113861;27;1130;-74
2021/09/17 00:08:44;;;;;;;;;;;;;;;;;;2114647;27;1917;-74
2021/09/17 00:09:45;;;;;;;;;;;;;;;;;;2111706;27;3942;-74
2021/09/17 00:10:46;;;;;;;;;;;;;;;;;;2105138;28;4472;-74
2021/09/17 00:11:46;;;;;;;;;;;;;;;;;;2100489;27;1065;-74
2021/09/17 00:12:47;;;;;;;;;;;;;;;;;;2100609;27;1134;-74
2021/09/17 00:13:47;;;;;;;;;;;;;;;;;;2100378;27;4599;-74
2021/09/17 00:14:48;;;;;;;;;;;;;;;;;;2101689;27;1324;-74
2021/09/17 00:15:48;;;;;;;;;;;;;;;;;;2099988;27;4039;-74
2021/09/17 00:16:49;;;;;;;;;;;;;;;;;;2102446;27;1308;-74
2021/09/17 00:17:50;;;;;;;;;;;;;;;;;;2101876;27;1006;-74
2021/09/17 00:18:51;;;;;;;;;;;;;;;;;;2102547;27;1065;-74
2021/09/17 00:19:51;;;;;;;;;;;;;;;;;;2100449;27;3951;-74
2021/09/17 00:20:52;;;;;;;;;;;;;;;;;;2100900;27;4180;-74
2021/09/17 00:21:52;;;;;;;;;;;;;;;;;;2101766;28;1030;-74
2021/09/17 00:22:55;;;;;;;;;;;;;;;;;;2102514;27;1038;-74
2021/09/17 00:23:55;;;;;;;;;;;;;;;;;;2101202;27;4669;-74
2021/09/17 00:24:56;;;;;;;;;;;;;;;;;;2102100;27;2223;-74
2021/09/17 00:25:56;;;;;;;;;;;;;;;;;;2102893;27;4077;-74
2021/09/17 00:26:57;;;;;;;;;;;;;;;;;;2103427;27;1093;-74
2021/09/17 00:27:57;;;;;;;;;;;;;;;;;;2103663;27;1202;-74
2021/09/17 00:28:58;;;;;;;;;;;;;;;;;;2103163;27;4661;-74
2021/09/17 00:29:58;;;;;;;;;;;;;;;;;;2103354;27;4678;-74
2021/09/17 00:31:00;;;;;;;;;;;;;;;;;;2101279;27;4632;-74
2021/09/17 00:32:00;;;;;;;;;;;;;;;;;;2104026;27;1099;-74
2021/09/17 00:33:01;;;;;;;;;;;;;;;;;;2103602;27;1062;-74
2021/09/17 00:34:01;;;;;;;;;;;;;;;;;;2102975;27;4020;-74
2021/09/17 00:35:02;;;;;;;;;;;;;;;;;;2101199;27;4728;-74
2021/09/17 00:36:02;;;;;;;;;;;;;;;;;;2103622;27;4008;-74
2021/09/17 00:37:03;;;;;;;;;;;;;;;;;;2103295;27;4493;-74
2021/09/17 00:38:04;;;;;;;;;;;;;;;;;;2104168;27;3961;-74
2021/09/17 00:39:04;;;;;;;;;;;;;;;;;;2105226;27;3964;-74
2021/09/17 00:40:05;;;;;;;;;;;;;;;;;;2105666;27;4107;-74
2021/09/17 00:41:06;;;;;;;;;;;;;;;;;;2105515;27;4618;-74
2021/09/17 00:42:07;;;;;;;;;;;;;;;;;;2106207;27;1049;-74
2021/09/17 00:43:07;;;;;;;;;;;;;;;;;;2105935;27;1091;-74
2021/09/17 00:44:08;;;;;;;;;;;;;;;;;;2105445;27;1026;-74
2021/09/17 00:45:08;;;;;;;;;;;;;;;;;;2104473;27;4705;-74
2021/09/17 00:46:09;;;;;;;;;;;;;;;;;;2104422;27;4100;-74
2021/09/17 00:48:25;;;;;;;;;;;;;;;;;;2102972;27;4148;-74
2021/09/17 00:49:26;;;;;;;;;;;;;;;;;;2106767;27;1987;-74
2021/09/17 00:50:27;;;;;;;;;;;;;;;;;;2107225;27;2016;-74
2021/09/17 00:51:27;;;;;;;;;;;;;;;;;;2106708;27;1335;-74
2021/09/17 00:52:28;;;;;;;;;;;;;;;;;;2108157;27;1273;-74
2021/09/17 00:53:33;;;;;;;;;;;;;;;;;;2107397;27;1032;-74
2021/09/17 00:54:34;;;;;;;;;;;;;;;;;;2107666;27;1061;-74
2021/09/17 00:55:35;;;;;;;;;;;;;;;;;;2107178;27;4048;-74
2021/09/17 00:56:36;;;;;;;;;;;;;;;;;;2108877;27;1089;-74
2021/09/17 00:57:36;;;;;;;;;;;;;;;;;;2109168;27;1086;-74
2021/09/17 00:58:37;;;;;;;;;;;;;;;;;;2109310;27;1237;-75
2021/09/17 00:59:37;;;;;;;;;;;;;;;;;;2109327;27;1154;-74
2021/09/17 01:00:38;;;;;;;;;;;;;;;;;;2109296;27;1096;-74
2021/09/17 01:01:39;;;;;;;;;;;;;;;;;;2109027;27;1149;-74
2021/09/17 01:02:40;;;;;;;;;;;;;;;;;;2110607;27;1025;-74
2021/09/17 01:03:40;;;;;;;;;;;;;;;;;;2106854;27;3576;-74
2021/09/17 01:04:41;;;;;;;;;;;;;;;;;;2109576;27;4174;-74
2021/09/17 01:05:41;;;;;;;;;;;;;;;;;;2107148;27;3983;-74
2021/09/17 01:06:43;;;;;;;;;;;;;;;;;;2108549;27;4190;-74
2021/09/17 01:07:43;;;;;;;;;;;;;;;;;;2108144;27;4202;-74
2021/09/17 01:08:44;;;;;;;;;;;;;;;;;;2111696;27;1549;-74
2021/09/17 01:09:44;;;;;;;;;;;;;;;;;;2108914;27;4039;-75
2021/09/17 01:10:45;;;;;;;;;;;;;;;;;;2107917;27;4382;-74
2021/09/17 01:11:45;;;;;;;;;;;;;;;;;;2111208;27;1208;-74
2021/09/17 01:12:46;;;;;;;;;;;;;;;;;;2110051;27;4031;-74
2021/09/17 01:13:47;;;;;;;;;;;;;;;;;;2111714;27;1044;-74
2021/09/17 01:14:48;;;;;;;;;;;;;;;;;;2112342;27;1086;-74
2021/09/17 01:15:48;;;;;;;;;;;;;;;;;;2110804;27;4456;-74
2021/09/17 01:16:49;;;;;;;;;;;;;;;;;;2108178;27;2129;-74
2021/09/17 01:17:49;;;;;;;;;;;;;;;;;;2109666;27;3224;-74
2021/09/17 01:18:50;;;;;;;;;;;;;;;;;;2110622;27;4121;-74
2021/09/17 01:19:50;;;;;;;;;;;;;;;;;;2112010;27;4154;-74
2021/09/17 01:20:51;;;;;;;;;;;;;;;;;;2113310;27;4118;-74
2021/09/17 01:21:51;;;;;;;;;;;;;;;;;;2112093;27;1984;-74
2021/09/17 01:22:52;;;;;;;;;;;;;;;;;;2113435;27;3326;-74
2021/09/17 01:23:53;;;;;;;;;;;;;;;;;;2113407;27;1130;-74
2021/09/17 01:24:54;;;;;;;;;;;;;;;;;;2106979;27;4064;-74
2021/09/17 01:25:57;;;;;;;;;;;;;;;;;;2099782;27;4314;-74
2021/09/17 01:26:58;;;;;;;;;;;;;;;;;;2099113;28;4403;-74
2021/09/17 01:27:59;;;;;;;;;;;;;;;;;;2100317;27;3648;-74
2021/09/17 01:28:59;;;;;;;;;;;;;;;;;;2100133;27;4112;-74
2021/09/17 01:30:00;;;;;;;;;;;;;;;;;;2100666;27;4015;-74
2021/09/17 01:31:03;;;;;;;;;;;;;;;;;;2097702;27;4002;-74
2021/09/17 01:32:04;;;;;;;;;;;;;;;;;;2101155;27;1285;-74
2021/09/17 01:33:04;;;;;;;;;;;;;;;;;;2101427;27;1165;-74
2021/09/17 01:34:05;;;;;;;;;;;;;;;;;;2099324;27;4081;-74
2021/09/17 01:35:05;;;;;;;;;;;;;;;;;;2099271;27;4613;-74
2021/09/17 01:36:07;;;;;;;;;;;;;;;;;;2100857;27;1278;-74
2021/09/17 01:37:07;;;;;;;;;;;;;;;;;;2100508;27;4365;-75
2021/09/17 01:38:08;;;;;;;;;;;;;;;;;;2099285;27;4328;-74
2021/09/17 01:39:08;;;;;;;;;;;;;;;;;;2100905;27;4329;-74
2021/09/17 01:40:09;;;;;;;;;;;;;;;;;;2102536;27;1113;-74
2021/09/17 01:41:09;;;;;;;;;;;;;;;;;;2101483;27;4005;-74
2021/09/17 01:42:10;;;;;;;;;;;;;;;;;;2100685;27;4155;-74
2021/09/17 01:43:10;;;;;;;;;;;;;;;;;;2102679;27;1036;-74
2021/09/17 01:44:11;;;;;;;;;;;;;;;;;;2102543;27;1010;-74
2021/09/17 01:45:12;;;;;;;;;;;;;;;;;;2101487;27;3899;-74
2021/09/17 01:46:13;;;;;;;;;;;;;;;;;;2100132;27;4471;-74
2021/09/17 01:47:13;;;;;;;;;;;;;;;;;;2103662;27;1045;-74
2021/09/17 01:48:14;;;;;;;;;;;;;;;;;;2100827;27;4376;-74
2021/09/17 01:49:14;;;;;;;;;;;;;;;;;;2096134;27;4252;-75
2021/09/17 01:50:15;;;;;;;;;;;;;;;;;;2102101;27;4057;-74
2021/09/17 01:51:15;;;;;;;;;;;;;;;;;;2100817;27;4396;-74
2021/09/17 01:52:16;;;;;;;;;;;;;;;;;;2103158;27;3915;-74
2021/09/17 01:53:17;;;;;;;;;;;;;;;;;;2102940;27;4127;-74
2021/09/17 01:54:18;;;;;;;;;;;;;;;;;;2103269;27;3963;-74
2021/09/17 01:55:18;;;;;;;;;;;;;;;;;;2105313;27;2321;-74
2021/09/17 01:56:20;;;;;;;;;;;;;;;;;;2104288;27;1053;-74
2021/09/17 01:57:21;;;;;;;;;;;;;;;;;;2104985;27;3942;-74
2021/09/17 01:58:22;;;;;;;;;;;;;;;;;;2104359;27;3951;-74
2021/09/17 01:59:22;;;;;;;;;;;;;;;;;;2105001;27;1331;-74
2021/09/17 02:00:28;;;;;;;;;;;;;;;;;;2105792;27;4096;-75
2021/09/17 02:01:28;;;;;;;;;;;;;;;;;;2106470;27;1173;-74
2021/09/17 02:02:29;;;;;;;;;;;;;;;;;;2105907;27;1065;-74
2021/09/17 02:03:30;;;;;;;;;;;;;;;;;;2105407;27;4159;-75
2021/09/17 02:04:31;;;;;;;;;;;;;;;;;;2107150;27;1089;-74
2021/09/17 02:05:31;;;;;;;;;;;;;;;;;;2105930;27;2978;-74
2021/09/17 02:06:32;;;;;;;;;;;;;;;;;;2106339;27;1030;-74
2021/09/17 02:07:32;;;;;;;;;;;;;;;;;;2107194;27;2089;-74
2021/09/17 02:08:33;;;;;;;;;;;;;;;;;;2107755;27;1359;-74
2021/09/17 02:09:33;;;;;;;;;;;;;;;;;;2107915;27;1950;-74
2021/09/17 02:10:35;;;;;;;;;;;;;;;;;;2108136;27;1037;-74
2021/09/17 02:11:35;;;;;;;;;;;;;;;;;;2107913;27;1029;-74
2021/09/17 02:12:36;;;;;;;;;;;;;;;;;;2108024;27;3415;-74
2021/09/17 02:13:36;;;;;;;;;;;;;;;;;;2107897;27;4292;-74
2021/09/17 02:14:38;;;;;;;;;;;;;;;;;;2110036;27;1068;-74
2021/09/17 02:15:38;;;;;;;;;;;;;;;;;;2109059;27;4147;-74
2021/09/17 02:16:39;;;;;;;;;;;;;;;;;;2109599;27;1046;-74
2021/09/17 02:17:40;;;;;;;;;;;;;;;;;;2109040;27;1014;-75
2021/09/17 02:18:41;;;;;;;;;;;;;;;;;;2109065;27;1013;-74
2021/09/17 02:19:41;;;;;;;;;;;;;;;;;;2106406;27;4145;-74
2021/09/17 02:20:42;;;;;;;;;;;;;;;;;;2107620;27;3891;-74
2021/09/17 02:21:48;;;;;;;;;;;;;;;;;;2109107;27;1117;-74
2021/09/17 02:22:49;;;;;;;;;;;;;;;;;;2110697;27;1103;-74
2021/09/17 02:23:49;;;;;;;;;;;;;;;;;;2109976;27;1133;-74
2021/09/17 02:24:50;;;;;;;;;;;;;;;;;;2107926;27;4285;-74
2021/09/17 02:25:50;;;;;;;;;;;;;;;;;;2109961;27;3960;-75
2021/09/17 02:26:51;;;;;;;;;;;;;;;;;;2112430;27;1145;-74
2021/09/17 02:27:51;;;;;;;;;;;;;;;;;;2111410;27;4132;-74
2021/09/17 02:28:53;;;;;;;;;;;;;;;;;;2100987;27;1106;-74
2021/09/17 02:29:53;;;;;;;;;;;;;;;;;;2099021;28;1910;-74
2021/09/17 02:30:54;;;;;;;;;;;;;;;;;;2099612;27;1077;-75
2021/09/17 02:31:54;;;;;;;;;;;;;;;;;;2099014;28;1176;-74
2021/09/17 02:32:55;;;;;;;;;;;;;;;;;;2099713;27;1084;-74
2021/09/17 02:33:55;;;;;;;;;;;;;;;;;;2098818;27;4058;-74
2021/09/17 02:34:56;;;;;;;;;;;;;;;;;;2094866;27;4045;-74
2021/09/17 02:35:56;;;;;;;;;;;;;;;;;;2100252;27;3562;-74
2021/09/17 02:36:57;;;;;;;;;;;;;;;;;;2097435;27;1906;-74
2021/09/17 02:37:57;;;;;;;;;;;;;;;;;;2099785;28;4008;-74
2021/09/17 02:38:59;;;;;;;;;;;;;;;;;;2100215;27;4578;-74
2021/09/17 02:39:59;;;;;;;;;;;;;;;;;;2100039;27;1135;-74
2021/09/17 02:41:00;;;;;;;;;;;;;;;;;;2101023;27;1604;-74
2021/09/17 02:42:00;;;;;;;;;;;;;;;;;;2101283;27;1382;-74
2021/09/17 02:43:01;;;;;;;;;;;;;;;;;;2102007;27;1200;-74
2021/09/17 02:44:01;;;;;;;;;;;;;;;;;;2101360;27;1108;-74
2021/09/17 02:45:02;;;;;;;;;;;;;;;;;;2101220;27;4128;-74
2021/09/17 02:46:02;;;;;;;;;;;;;;;;;;2101873;27;1280;-74
2021/09/17 02:47:04;;;;;;;;;;;;;;;;;;2103592;27;1047;-74
2021/09/17 02:48:04;;;;;;;;;;;;;;;;;;2102895;27;1115;-74
2021/09/17 02:49:05;;;;;;;;;;;;;;;;;;2103963;27;1138;-74
2021/09/17 02:50:05;;;;;;;;;;;;;;;;;;2102908;27;1909;-74
2021/09/17 02:51:06;;;;;;;;;;;;;;;;;;2104172;27;1103;-74
2021/09/17 02:52:06;;;;;;;;;;;;;;;;;;2103784;27;1123;-74
2021/09/17 02:53:07;;;;;;;;;;;;;;;;;;2103202;27;3528;-74
2021/09/17 02:54:08;;;;;;;;;;;;;;;;;;2102851;27;1597;-74
2021/09/17 02:55:09;;;;;;;;;;;;;;;;;;2103894;27;3464;-74
2021/09/17 02:56:09;;;;;;;;;;;;;;;;;;2103197;27;1442;-74
2021/09/17 02:57:10;;;;;;;;;;;;;;;;;;2105017;27;1226;-74
2021/09/17 02:58:11;;;;;;;;;;;;;;;;;;2105268;27;1281;-74
2021/09/17 02:59:12;;;;;;;;;;;;;;;;;;2105413;27;1516;-74
2021/09/17 03:00:12;;;;;;;;;;;;;;;;;;2105485;27;990;-74
2021/09/17 03:01:13;;;;;;;;;;;;;;;;;;2105521;27;1057;-74
2021/09/17 03:02:13;;;;;;;;;;;;;;;;;;2106743;27;1068;-74
2021/09/17 03:03:16;;;;;;;;;;;;;;;;;;2104145;27;3819;-74
2021/09/17 03:04:16;;;;;;;;;;;;;;;;;;2103138;27;1205;-74
2021/09/17 03:05:17;;;;;;;;;;;;;;;;;;2104131;27;3557;-74
2021/09/17 03:06:17;;;;;;;;;;;;;;;;;;2104927;27;1275;-74
2021/09/17 03:07:18;;;;;;;;;;;;;;;;;;2106173;27;1088;-74
2021/09/17 03:08:18;;;;;;;;;;;;;;;;;;2106971;27;1330;-74
2021/09/17 03:09:19;;;;;;;;;;;;;;;;;;2103024;27;4651;-74
2021/09/17 03:10:19;;;;;;;;;;;;;;;;;;2106121;27;4297;-74
2021/09/17 03:11:21;;;;;;;;;;;;;;;;;;2104988;27;4172;-74
2021/09/17 03:12:21;;;;;;;;;;;;;;;;;;2106315;27;2229;-74
2021/09/17 03:13:23;;;;;;;;;;;;;;;;;;2106572;27;1037;-74
2021/09/17 03:14:23;;;;;;;;;;;;;;;;;;2107218;27;1074;-74
2021/09/17 03:15:24;;;;;;;;;;;;;;;;;;2107683;27;3796;-74
2021/09/17 03:16:24;;;;;;;;;;;;;;;;;;2105170;27;3276;-74
2021/09/17 03:17:25;;;;;;;;;;;;;;;;;;2107926;27;1121;-74
2021/09/17 03:18:26;;;;;;;;;;;;;;;;;;2109137;27;1052;-74
2021/09/17 03:19:27;;;;;;;;;;;;;;;;;;2103649;28;4175;-74
2021/09/17 03:20:27;;;;;;;;;;;;;;;;;;2108230;27;1311;-74
2021/09/17 03:21:28;;;;;;;;;;;;;;;;;;2108006;27;1083;-74
2021/09/17 03:22:28;;;;;;;;;;;;;;;;;;2108765;27;3139;-74
2021/09/17 03:23:29;;;;;;;;;;;;;;;;;;2108076;27;3861;-75
2021/09/17 03:24:29;;;;;;;;;;;;;;;;;;2104532;27;1073;-74
2021/09/17 03:25:30;;;;;;;;;;;;;;;;;;2108805;27;4677;-74
2021/09/17 03:26:31;;;;;;;;;;;;;;;;;;2104188;27;4467;-74
2021/09/17 03:27:32;;;;;;;;;;;;;;;;;;2108252;27;4106;-74
2021/09/17 03:28:32;;;;;;;;;;;;;;;;;;2110075;27;1101;-74
2021/09/17 03:29:33;;;;;;;;;;;;;;;;;;2109127;27;1200;-74
2021/09/17 03:30:33;;;;;;;;;;;;;;;;;;2109455;27;1110;-74
2021/09/17 03:31:34;;;;;;;;;;;;;;;;;;2108253;27;4214;-74
2021/09/17 03:32:35;;;;;;;;;;;;;;;;;;2110849;27;1312;-74
2021/09/17 03:33:36;;;;;;;;;;;;;;;;;;2105096;27;1902;-74
2021/09/17 03:34:36;;;;;;;;;;;;;;;;;;2109283;27;1324;-74
2021/09/17 03:35:38;;;;;;;;;;;;;;;;;;2110417;27;1831;-74
2021/09/17 03:36:42;;;;;;;;;;;;;;;;;;2109938;27;1087;-74
2021/09/17 03:37:42;;;;;;;;;;;;;;;;;;2111073;28;4215;-74
2021/09/17 03:38:43;;;;;;;;;;;;;;;;;;2111000;27;3234;-75
2021/09/17 03:39:43;;;;;;;;;;;;;;;;;;2111772;27;1134;-74
2021/09/17 03:40:46;;;;;;;;;;;;;;;;;;2109762;27;3988;-74
2021/09/17 03:42:40;;;;;;;;;;;;;;;;;;2124037;27;3873;-74
2021/09/17 03:43:40;;;;;;;;;;;;;;;;;;2124263;27;4296;-74
2021/09/17 03:44:41;;;;;;;;;;;;;;;;;;2121419;27;3883;-74
2021/09/17 03:45:41;;;;;;;;;;;;;;;;;;2118198;27;2879;-74
2021/09/17 03:46:42;;;;;;;;;;;;;;;;;;2113341;27;1013;-74
2021/09/17 03:47:42;;;;;;;;;;;;;;;;;;2114524;27;1128;-74
2021/09/17 03:48:43;;;;;;;;;;;;;;;;;;2114361;27;3925;-74
2021/09/17 03:49:43;;;;;;;;;;;;;;;;;;2114230;27;4073;-74
2021/09/17 03:50:45;;;;;;;;;;;;;;;;;;2114553;27;4284;-74
2021/09/17 03:51:45;;;;;;;;;;;;;;;;;;2113236;27;3760;-74
2021/09/17 03:52:46;;;;;;;;;;;;;;;;;;2114815;27;1940;-74
2021/09/17 03:53:46;;;;;;;;;;;;;;;;;;2113689;27;1097;-74
2021/09/17 03:54:47;;;;;;;;;;;;;;;;;;2114469;27;3846;-74
2021/09/17 03:55:47;;;;;;;;;;;;;;;;;;2111933;27;3940;-74
2021/09/17 03:56:48;;;;;;;;;;;;;;;;;;2115359;27;1101;-74
2021/09/17 03:57:48;;;;;;;;;;;;;;;;;;2115561;27;1222;-74
2021/09/17 03:58:49;;;;;;;;;;;;;;;;;;2115544;27;4014;-74
2021/09/17 03:59:50;;;;;;;;;;;;;;;;;;2115163;27;1132;-74
2021/09/17 04:00:51;;;;;;;;;;;;;;;;;;2114752;27;3685;-74
2021/09/17 04:01:52;;;;;;;;;;;;;;;;;;2115408;27;1906;-74
2021/09/17 04:02:53;;;;;;;;;;;;;;;;;;2115397;27;1021;-74
2021/09/17 04:03:53;;;;;;;;;;;;;;;;;;2113026;27;3608;-74
2021/09/17 04:04:54;;;;;;;;;;;;;;;;;;2112544;27;4147;-74
2021/09/17 04:05:54;;;;;;;;;;;;;;;;;;2114672;27;3959;-74
2021/09/17 04:06:55;;;;;;;;;;;;;;;;;;2114919;27;4223;-74
2021/09/17 04:07:55;;;;;;;;;;;;;;;;;;2116225;27;3956;-74
2021/09/17 04:08:56;;;;;;;;;;;;;;;;;;2115508;27;4129;-74
2021/09/17 04:09:56;;;;;;;;;;;;;;;;;;2114856;27;4556;-74
2021/09/17 04:10:58;;;;;;;;;;;;;;;;;;2115939;27;1177;-74
2021/09/17 04:11:59;;;;;;;;;;;;;;;;;;2116387;27;4232;-74
2021/09/17 04:13:00;;;;;;;;;;;;;;;;;;2116730;27;1093;-74
2021/09/17 04:14:00;;;;;;;;;;;;;;;;;;2115684;27;1085;-74
2021/09/17 04:15:01;;;;;;;;;;;;;;;;;;2114774;27;3853;-74
2021/09/17 04:16:04;;;;;;;;;;;;;;;;;;2112773;27;4453;-74
2021/09/17 04:17:07;;;;;;;;;;;;;;;;;;2116502;27;1079;-74
2021/09/17 04:18:07;;;;;;;;;;;;;;;;;;2116762;27;1147;-74
2021/09/17 04:19:08;;;;;;;;;;;;;;;;;;2117275;27;1139;-74
2021/09/17 04:20:09;;;;;;;;;;;;;;;;;;2116633;27;1080;-74
2021/09/17 04:21:10;;;;;;;;;;;;;;;;;;2115695;27;4200;-74
2021/09/17 04:22:11;;;;;;;;;;;;;;;;;;2116045;27;4303;-74
2021/09/17 04:23:12;;;;;;;;;;;;;;;;;;2117316;27;1255;-74
2021/09/17 04:24:12;;;;;;;;;;;;;;;;;;2117186;27;1063;-74
2021/09/17 04:25:13;;;;;;;;;;;;;;;;;;2117420;27;3312;-74
2021/09/17 04:26:13;;;;;;;;;;;;;;;;;;2115953;27;2437;-74
2021/09/17 04:27:14;;;;;;;;;;;;;;;;;;2117023;27;3614;-74
2021/09/17 04:28:15;;;;;;;;;;;;;;;;;;2117463;27;1485;-74
2021/09/17 04:29:16;;;;;;;;;;;;;;;;;;2117840;27;1133;-74
2021/09/17 04:30:16;;;;;;;;;;;;;;;;;;2116654;27;3410;-74
2021/09/17 04:31:17;;;;;;;;;;;;;;;;;;2116880;27;3896;-74
2021/09/17 04:32:17;;;;;;;;;;;;;;;;;;2116815;27;4214;-74
2021/09/17 04:33:18;;;;;;;;;;;;;;;;;;2117295;27;1027;-74
2021/09/17 04:34:18;;;;;;;;;;;;;;;;;;2117770;27;1243;-74
2021/09/17 04:35:19;;;;;;;;;;;;;;;;;;2117375;27;2175;-74
2021/09/17 04:36:19;;;;;;;;;;;;;;;;;;2117491;27;1112;-74
2021/09/17 04:37:21;;;;;;;;;;;;;;;;;;2118071;27;1144;-74
2021/09/17 04:38:21;;;;;;;;;;;;;;;;;;2118599;27;1167;-74
2021/09/17 04:39:22;;;;;;;;;;;;;;;;;;2118636;27;1700;-74
2021/09/17 04:40:22;;;;;;;;;;;;;;;;;;2118447;27;1226;-74
2021/09/17 04:41:34;;;;;;;;;;;;;;;;;;2117639;27;1531;-73
2021/09/17 04:42:34;;;;;;;;;;;;;;;;;;2116466;27;4096;-74
2021/09/17 04:43:35;;;;;;;;;;;;;;;;;;2118298;27;1041;-74
2021/09/17 04:44:35;;;;;;;;;;;;;;;;;;2118019;27;1416;-74
2021/09/17 04:45:36;;;;;;;;;;;;;;;;;;2117936;27;3570;-73
2021/09/17 04:46:37;;;;;;;;;;;;;;;;;;2117099;27;2756;-74
2021/09/17 04:47:38;;;;;;;;;;;;;;;;;;2115107;27;4610;-74
2021/09/17 04:48:38;;;;;;;;;;;;;;;;;;2117354;27;4078;-74
2021/09/17 04:49:40;;;;;;;;;;;;;;;;;;2113565;27;5272;-74
2021/09/17 04:50:40;;;;;;;;;;;;;;;;;;2117654;27;5078;-74
2021/09/17 04:51:41;;;;;;;;;;;;;;;;;;2113538;27;4138;-74
2021/09/17 04:52:41;;;;;;;;;;;;;;;;;;2117854;27;3907;-74
2021/09/17 04:53:42;;;;;;;;;;;;;;;;;;2107771;27;3677;-74
2021/09/17 04:54:42;;;;;;;;;;;;;;;;;;2111497;27;2855;-74
2021/09/17 04:55:43;;;;;;;;;;;;;;;;;;2110089;27;3870;-74
2021/09/17 04:56:44;;;;;;;;;;;;;;;;;;2103452;27;4110;-74
2021/09/17 04:57:45;;;;;;;;;;;;;;;;;;2107246;27;4375;-74
2021/09/17 04:58:45;;;;;;;;;;;;;;;;;;2112200;27;4565;-74
2021/09/17 04:59:46;;;;;;;;;;;;;;;;;;2112346;27;1087;-73
2021/09/17 05:00:46;;;;;;;;;;;;;;;;;;2108554;27;4139;-74
2021/09/17 05:01:50;;;;;;;;;;;;;;;;;;2107285;27;5448;-74
2021/09/17 05:02:51;;;;;;;;;;;;;;;;;;2108550;27;5625;-74
2021/09/17 05:03:51;;;;;;;;;;;;;;;;;;2106380;27;4748;-74
2021/09/17 05:04:53;;;;;;;;;;;;;;;;;;2102558;27;4122;-74
2021/09/17 05:05:56;;;;;;;;;;;;;;;;;;2107069;27;1759;-74
2021/09/17 05:06:58;;;;;;;;;;;;;;;;;;2102864;27;4607;-74
2021/09/17 05:07:58;;;;;;;;;;;;;;;;;;2104414;27;5555;-74
2021/09/17 05:08:59;;;;;;;;;;;;;;;;;;2106000;27;4909;-74
2021/09/17 05:09:59;;;;;;;;;;;;;;;;;;2106601;27;3725;-74
2021/09/17 05:11:00;;;;;;;;;;;;;;;;;;2106556;27;2604;-74
2021/09/17 05:12:00;;;;;;;;;;;;;;;;;;2106620;27;3907;-74
2021/09/17 05:13:02;;;;;;;;;;;;;;;;;;2105976;27;3752;-74
2021/09/17 05:14:02;;;;;;;;;;;;;;;;;;2104473;27;4588;-74
2021/09/17 05:15:03;;;;;;;;;;;;;;;;;;2103157;27;4936;-74
2021/09/17 05:16:03;;;;;;;;;;;;;;;;;;2106000;27;3866;-74
2021/09/17 05:17:04;;;;;;;;;;;;;;;;;;2106113;27;5506;-74
2021/09/17 05:18:04;;;;;;;;;;;;;;;;;;2106460;27;3266;-74
2021/09/17 05:19:05;;;;;;;;;;;;;;;;;;2107984;27;2394;-74
2021/09/17 05:20:06;;;;;;;;;;;;;;;;;;2105835;27;4096;-73
2021/09/17 05:21:07;;;;;;;;;;;;;;;;;;2106715;27;4006;-74
2021/09/17 05:22:07;;;;;;;;;;;;;;;;;;2108267;27;3931;-74
2021/09/17 05:23:08;;;;;;;;;;;;;;;;;;2107977;27;3938;-74
2021/09/17 05:24:08;;;;;;;;;;;;;;;;;;2104033;27;4144;-73
2021/09/17 05:25:09;;;;;;;;;;;;;;;;;;2106620;27;3917;-74
2021/09/17 05:26:09;;;;;;;;;;;;;;;;;;2108407;27;1263;-74
2021/09/17 05:27:14;;;;;;;;;;;;;;;;;;2107372;27;3599;-74
2021/09/17 05:28:15;;;;;;;;;;;;;;;;;;2107963;27;3927;-74
2021/09/17 05:29:15;;;;;;;;;;;;;;;;;;2108653;27;4433;-74
2021/09/17 05:30:16;;;;;;;;;;;;;;;;;;2106768;27;4413;-74
2021/09/17 05:31:16;;;;;;;;;;;;;;;;;;2110091;27;4216;-74
2021/09/17 05:32:18;;;;;;;;;;;;;;;;;;2108366;27;3881;-74
2021/09/17 05:33:18;;;;;;;;;;;;;;;;;;2105619;27;4190;-74
2021/09/17 05:34:19;;;;;;;;;;;;;;;;;;2107855;27;4069;-74
2021/09/17 05:35:20;;;;;;;;;;;;;;;;;;2107301;27;4155;-74
2021/09/17 05:36:20;;;;;;;;;;;;;;;;;;2108191;27;2344;-74
2021/09/17 05:37:21;;;;;;;;;;;;;;;;;;2109232;27;4147;-74
2021/09/17 05:38:22;;;;;;;;;;;;;;;;;;2110692;27;2338;-74
2021/09/17 05:39:22;;;;;;;;;;;;;;;;;;2109561;27;4330;-74
2021/09/17 05:40:23;;;;;;;;;;;;;;;;;;2111064;27;1259;-74
2021/09/17 05:41:24;;;;;;;;;;;;;;;;;;2108661;27;3645;-74
2021/09/17 05:42:26;;;;;;;;;;;;;;;;;;2111196;27;3965;-74
2021/09/17 05:43:26;;;;;;;;;;;;;;;;;;2109924;27;4079;-73
2021/09/17 05:44:28;;;;;;;;;;;;;;;;;;2107663;27;5103;-74
2021/09/17 05:45:28;;;;;;;;;;;;;;;;;;2106355;27;3784;-73
2021/09/17 05:46:29;;;;;;;;;;;;;;;;;;2109588;27;3697;-74
2021/09/17 05:47:29;;;;;;;;;;;;;;;;;;2111318;27;4089;-74
2021/09/17 05:48:30;;;;;;;;;;;;;;;;;;2111175;27;3294;-74
2021/09/17 05:49:30;;;;;;;;;;;;;;;;;;2108585;27;3656;-74
2021/09/17 05:50:31;;;;;;;;;;;;;;;;;;2104616;27;2707;-74
2021/09/17 05:51:31;;;;;;;;;;;;;;;;;;2103645;27;2813;-74
2021/09/17 05:52:33;;;;;;;;;;;;;;;;;;2111785;27;1226;-74
2021/09/17 05:53:33;;;;;;;;;;;;;;;;;;2109468;27;3968;-74
2021/09/17 05:54:34;;;;;;;;;;;;;;;;;;2108275;27;3562;-73
2021/09/17 05:55:40;;;;;;;;;;;;;;;;;;2105936;27;4203;-74
2021/09/17 05:56:41;;;;;;;;;;;;;;;;;;2108972;27;2501;-74
2021/09/17 05:57:42;;;;;;;;;;;;;;;;;;2112409;27;1184;-74
2021/09/17 05:58:43;;;;;;;;;;;;;;;;;;2110705;27;3814;-74
2021/09/17 05:59:43;;;;;;;;;;;;;;;;;;2107978;27;3915;-74
2021/09/17 06:00:44;;;;;;;;;;;;;;;;;;2109103;27;4168;-74
2021/09/17 06:01:44;;;;;;;;;;;;;;;;;;2112291;27;1854;-74
2021/09/17 06:02:45;;;;;;;;;;;;;;;;;;2107838;27;4587;-74
2021/09/17 06:03:45;;;;;;;;;;;;;;;;;;2110276;27;4414;-74
2021/09/17 06:04:47;;;;;;;;;;;;;;;;;;2112013;27;2660;-74
2021/09/17 06:05:47;;;;;;;;;;;;;;;;;;2105962;27;4030;-74
2021/09/17 06:06:48;;;;;;;;;;;;;;;;;;2106922;27;3213;-74
2021/09/17 06:07:48;;;;;;;;;;;;;;;;;;2109419;27;3908;-74
2021/09/17 06:08:49;;;;;;;;;;;;;;;;;;2112357;27;3935;-74
2021/09/17 06:09:49;;;;;;;;;;;;;;;;;;2108980;27;4339;-74
2021/09/17 06:10:50;;;;;;;;;;;;;;;;;;2107267;27;3970;-74
2021/09/17 06:11:51;;;;;;;;;;;;;;;;;;2113550;27;1037;-74
2021/09/17 06:12:51;;;;;;;;;;;;;;;;;;2112224;27;3152;-74
2021/09/17 06:13:53;;;;;;;;;;;;;;;;;;2107322;27;4346;-74
2021/09/17 06:14:56;;;;;;;;;;;;;;;;;;2105557;27;4019;-74
2021/09/17 06:15:57;;;;;;;;;;;;;;;;;;2105898;27;4164;-74
2021/09/17 06:16:57;;;;;;;;;;;;;;;;;;2109146;27;1975;-74
2021/09/17 06:17:58;;;;;;;;;;;;;;;;;;2108116;27;4278;-74
2021/09/17 06:19:02;;;;;;;;;;;;;;;;;;2104516;27;3993;-74
2021/09/17 06:20:05;;;;;;;;;;;;;;;;;;2107404;27;3565;-74
2021/09/17 06:21:07;;;;;;;;;;;;;;;;;;2102730;27;3825;-74
2021/09/17 06:22:07;;;;;;;;;;;;;;;;;;2104347;27;3804;-74
2021/09/17 06:23:08;;;;;;;;;;;;;;;;;;2105471;27;3425;-74
2021/09/17 06:24:08;;;;;;;;;;;;;;;;;;2104708;27;3903;-74
2021/09/17 06:25:09;;;;;;;;;;;;;;;;;;2103001;27;3331;-74
2021/09/17 06:26:13;;;;;;;;;;;;;;;;;;2105434;27;3994;-73
2021/09/17 06:27:13;;;;;;;;;;;;;;;;;;2105848;27;3833;-74
2021/09/17 06:28:14;;;;;;;;;;;;;;;;;;2105373;27;3335;-74
2021/09/17 06:29:17;;;;;;;;;;;;;;;;;;2102331;27;3965;-74
2021/09/17 06:30:18;;;;;;;;;;;;;;;;;;2103160;27;3084;-73
2021/09/17 06:31:19;;;;;;;;;;;;;;;;;;2104738;27;4066;-74
2021/09/17 06:32:19;;;;;;;;;;;;;;;;;;2106303;27;3922;-74
2021/09/17 06:33:20;;;;;;;;;;;;;;;;;;2102247;27;3681;-74
2021/09/17 06:34:20;;;;;;;;;;;;;;;;;;2103666;27;2989;-74
2021/09/17 06:35:21;;;;;;;;;;;;;;;;;;2103886;27;3955;-74
2021/09/17 06:36:21;;;;;;;;;;;;;;;;;;2108340;27;1094;-74
2021/09/17 06:37:22;;;;;;;;;;;;;;;;;;2107474;27;3939;-74
2021/09/17 06:38:23;;;;;;;;;;;;;;;;;;2109561;27;1131;-74
2021/09/17 06:39:24;;;;;;;;;;;;;;;;;;2107023;27;3771;-74
2021/09/17 06:40:25;;;;;;;;;;;;;;;;;;2106023;27;4037;-74
2021/09/17 06:41:26;;;;;;;;;;;;;;;;;;2104138;27;4035;-74
2021/09/17 06:42:27;;;;;;;;;;;;;;;;;;2105115;27;2690;-74
2021/09/17 06:43:28;;;;;;;;;;;;;;;;;;2107530;27;2863;-74
2021/09/17 06:44:29;;;;;;;;;;;;;;;;;;2108452;27;4105;-74
2021/09/17 06:45:30;;;;;;;;;;;;;;;;;;2106329;27;4037;-74
2021/09/17 06:46:30;;;;;;;;;;;;;;;;;;2108765;27;4061;-74
2021/09/17 06:47:31;;;;;;;;;;;;;;;;;;2106221;27;4850;-74
2021/09/17 06:48:32;;;;;;;;;;;;;;;;;;2103911;27;4190;-74
2021/09/17 06:49:33;;;;;;;;;;;;;;;;;;2108839;27;3987;-74
2021/09/17 06:50:33;;;;;;;;;;;;;;;;;;2107837;27;3783;-73
2021/09/17 06:51:34;;;;;;;;;;;;;;;;;;2108312;27;3456;-74
2021/09/17 06:52:34;;;;;;;;;;;;;;;;;;2108650;27;3014;-73
2021/09/17 06:53:35;;;;;;;;;;;;;;;;;;2107411;27;3862;-74
2021/09/17 06:54:35;;;;;;;;;;;;;;;;;;2108442;27;4119;-74
2021/09/17 06:55:36;;;;;;;;;;;;;;;;;;2108904;27;4391;-74
2021/09/17 06:56:36;;;;;;;;;;;;;;;;;;2104561;27;3661;-74
2021/09/17 06:57:38;;;;;;;;;;;;;;;;;;2105006;27;4184;-74
2021/09/17 06:58:39;;;;;;;;;;;;;;;;;;2100757;27;4225;-74
2021/09/17 06:59:43;;;;;;;;;;;;;;;;;;2107918;27;3656;-74
2021/09/17 07:00:44;;;;;;;;;;;;;;;;;;2111011;27;1100;-74
2021/09/17 07:01:44;;;;;;;;;;;;;;;;;;2109835;27;4410;-74
2021/09/17 07:02:45;;;;;;;;;;;;;;;;;;2110261;27;2264;-74
2021/09/17 07:03:45;;;;;;;;;;;;;;;;;;2105496;27;3390;-74
2021/09/17 07:04:46;;;;;;;;;;;;;;;;;;2105521;27;3924;-74